Ana Sayfa
METAR-TAF:

METAR-TAF

Havaalanları :

Erzincan Havalimanı

Erzincan, Türkiye

Enlem: 39-44N, Boylam: 039-30E, yükseklik: 1156 m

Güncel hava durumu gözlemi

Rapor saat 23:50 UTC de 59 dakika önce yapıldı.
Rüzgar kuzeydan 4 kt, batı/güneybatı ve kuzey/kuzeydoğu arasında değişken
Sıcaklık -7°C
Nem 93%
Basınç 1019 hPa
Görüş mesafesi: 5000 m
Pus

METAR: LTCD 232350Z 36004KT 250V020 5000 BR NSC M07/M08 Q1019 NOSIG

Saat: 03:49 (00:49 UTC)

Tahmin

Rapor saat 22:40 UTC de 2 saat ve 9 dakika önce yapıldı.
Ayın 24'si saat 00 UTC'den ayın 24'si saat 09 UTC'ye kadar geçerli Tahmin
Rüzgar değişken yönden 2 kt
Görüş mesafesi: 6000 m
Geçici
ayın 24'si saat 03 UTC'den ayın 24'si saat 06 UTC'ye kadar
Görüş mesafesi: 4000 m
Pus

TAF: LTCD 232240Z 2400/2409 VRB02KT 6000 NSC TEMPO 2403/2406 4000 BR

4.000'den fazla havaalanı için hava durumu gözlemleri ve tahminleri (METAR ve TAF raporları).

Kullanılabilir istasyonlar harita üzerinde sarı ve kırmızı noktalarla gösterilir.

İstasyonun adını görmek için fareyi noktanın üzerinde gezdirin.

Sonrasında hava gözlem ve tahminlerini görmek için tıklayın.

Haritayı değiştirmek için: yaklaştırmak için siyah artı işaretli yeşil düğmeye ve uzaklaştırmak için de eksi işaretli düğmeye hızla tıklayın; bitişik haritalar için yeşil okları kullanın.


METAR-TAF: